createdAt,value
2019-03-17T00:00:18.861Z,7.4
2019-03-17T00:01:18.755Z,7.4
2019-03-17T00:02:18.675Z,7.4
2019-03-17T00:03:18.593Z,7.3
2019-03-17T00:04:30.537Z,7.3
2019-03-17T00:05:31.802Z,7.3
2019-03-17T00:06:31.701Z,7.3
2019-03-17T00:07:31.585Z,7.4
2019-03-17T00:08:31.544Z,7.3
2019-03-17T00:09:31.453Z,7.3
2019-03-17T00:10:31.851Z,7.3
2019-03-17T00:11:31.741Z,7.3
2019-03-17T00:12:32.237Z,7.3
2019-03-17T00:13:32.127Z,7.3
2019-03-17T00:14:32.023Z,7.3
2019-03-17T00:15:31.920Z,7.3
2019-03-17T00:16:31.813Z,7.3
2019-03-17T00:17:31.711Z,7.2
2019-03-17T00:18:31.603Z,7.2
2019-03-17T00:19:31.539Z,7.2
2019-03-17T00:20:31.939Z,7.2
2019-03-17T00:21:31.847Z,7.2
2019-03-17T00:22:31.755Z,7.2
2019-03-17T00:23:31.654Z,7.2
2019-03-17T00:24:31.598Z,7.2
2019-03-17T00:25:31.521Z,7.3
2019-03-17T00:26:31.421Z,7.4
2019-03-17T00:27:31.313Z,7.5
2019-03-17T00:28:31.220Z,7.5
2019-03-17T00:30:31.379Z,7.6
2019-03-17T00:31:31.267Z,7.6
2019-03-17T00:32:31.173Z,7.6
2019-03-17T00:33:31.069Z,7.6
2019-03-17T00:34:44.660Z,7.6
2019-03-17T00:35:44.617Z,7.6
2019-03-17T00:36:44.531Z,7.6
2019-03-17T00:37:44.426Z,7.6
2019-03-17T00:38:44.317Z,7.5
2019-03-17T00:39:44.206Z,7.4
2019-03-17T00:40:44.547Z,7.4
2019-03-17T00:41:44.427Z,7.3
2019-03-17T00:42:44.347Z,7.3
2019-03-17T00:43:44.247Z,7.3
2019-03-17T00:44:44.129Z,7.2
2019-03-17T00:45:44.043Z,7.2
2019-03-17T00:46:43.930Z,7.2
2019-03-17T00:47:43.815Z,7.2
2019-03-17T00:48:43.702Z,7.2
2019-03-17T00:49:43.582Z,7.2
2019-03-17T00:50:43.935Z,7.2
2019-03-17T00:51:43.829Z,7.2
2019-03-17T00:52:43.725Z,7.2
2019-03-17T00:53:43.622Z,7.2
2019-03-17T00:54:43.513Z,7.2
2019-03-17T00:55:43.417Z,7.1
2019-03-17T00:56:43.315Z,7.1
2019-03-17T00:57:43.218Z,7.1
2019-03-17T00:58:43.125Z,7.1
2019-03-17T00:59:43.013Z,7
2019-03-17T01:00:43.369Z,7
2019-03-17T01:01:43.275Z,7
2019-03-17T01:02:43.178Z,7
2019-03-17T01:03:43.081Z,7
2019-03-17T01:04:42.964Z,7
2019-03-17T01:05:56.326Z,7.2
2019-03-17T01:06:56.237Z,7.2
2019-03-17T01:07:56.135Z,7.3
2019-03-17T01:08:56.011Z,7.3
2019-03-17T01:09:55.914Z,7.4
2019-03-17T01:10:56.236Z,7.3
2019-03-17T01:11:56.153Z,7.4
2019-03-17T01:12:56.039Z,7.4
2019-03-17T01:13:55.947Z,7.4
2019-03-17T01:14:55.859Z,7.4
2019-03-17T01:15:55.755Z,7.4
2019-03-17T01:16:55.676Z,7.3
2019-03-17T01:17:55.567Z,7.3
2019-03-17T01:18:55.539Z,7.3
2019-03-17T01:19:55.407Z,7.3
2019-03-17T01:20:55.729Z,7.2
2019-03-17T01:21:55.642Z,7.2
2019-03-17T01:22:55.548Z,7.2
2019-03-17T01:23:55.433Z,7.2
2019-03-17T01:24:55.333Z,7.1
2019-03-17T01:25:55.269Z,7.1
2019-03-17T01:26:55.157Z,7
2019-03-17T01:27:55.067Z,7
2019-03-17T01:28:54.965Z,7
2019-03-17T01:29:57.440Z,7
2019-03-17T01:30:57.972Z,6.9
2019-03-17T01:31:57.861Z,7
2019-03-17T01:32:57.781Z,6.9
2019-03-17T01:33:57.681Z,6.9
2019-03-17T01:35:10.760Z,7
2019-03-17T01:36:10.665Z,7
2019-03-17T01:37:10.592Z,7.1
2019-03-17T01:38:10.515Z,7.1
2019-03-17T01:39:10.415Z,7.1
2019-03-17T01:40:10.325Z,7.2
2019-03-17T01:41:10.665Z,7.2
2019-03-17T01:42:10.643Z,7.2
2019-03-17T01:43:10.573Z,7.2
2019-03-17T01:44:10.471Z,7.2
2019-03-17T01:45:10.347Z,7.3
2019-03-17T01:46:10.315Z,7.2
2019-03-17T01:47:10.183Z,7.1
2019-03-17T01:48:10.070Z,7.1
2019-03-17T01:49:09.957Z,7.1
2019-03-17T01:50:09.873Z,7.1
2019-03-17T01:51:10.181Z,7
2019-03-17T01:52:10.071Z,7
2019-03-17T01:53:09.969Z,7
2019-03-17T01:54:09.898Z,7
2019-03-17T01:55:09.787Z,7
2019-03-17T01:56:09.690Z,7.1
2019-03-17T01:57:09.565Z,7.1
2019-03-17T01:58:09.449Z,7.1
2019-03-17T01:59:09.351Z,7.2
2019-03-17T02:00:09.258Z,7.2
2019-03-17T02:01:12.503Z,7.2
2019-03-17T02:02:12.410Z,7.2
2019-03-17T02:03:12.316Z,7.2
2019-03-17T02:04:12.219Z,7.3
2019-03-17T02:05:23.038Z,7.3
2019-03-17T02:06:22.963Z,7.2
2019-03-17T02:07:22.869Z,7.2
2019-03-17T02:08:22.770Z,7.2
2019-03-17T02:09:22.650Z,7.2
2019-03-17T02:10:22.569Z,7.1
2019-03-17T02:11:22.879Z,7.1
2019-03-17T02:12:22.768Z,7
2019-03-17T02:13:22.678Z,7
2019-03-17T02:14:22.608Z,7
2019-03-17T02:15:22.514Z,6.9
2019-03-17T02:16:22.401Z,6.9
2019-03-17T02:17:22.298Z,6.9
2019-03-17T02:18:22.188Z,6.9
2019-03-17T02:19:22.070Z,6.9
2019-03-17T02:20:21.965Z,6.9
2019-03-17T02:21:22.271Z,6.8
2019-03-17T02:22:22.924Z,6.8
2019-03-17T02:23:22.799Z,6.8
2019-03-17T02:24:22.693Z,6.7
2019-03-17T02:25:22.607Z,6.7
2019-03-17T02:26:22.511Z,6.7
2019-03-17T02:27:22.403Z,6.7
2019-03-17T02:28:22.290Z,6.7
2019-03-17T02:29:22.166Z,6.7
2019-03-17T02:30:22.152Z,6.6
2019-03-17T02:31:22.572Z,6.6
2019-03-17T02:32:22.485Z,6.6
2019-03-17T02:33:22.448Z,6.6
2019-03-17T02:34:22.372Z,6.6
2019-03-17T02:35:40.494Z,6.7
2019-03-17T02:36:40.455Z,6.7
2019-03-17T02:37:40.516Z,6.6
2019-03-17T02:38:40.450Z,6.6
2019-03-17T02:39:40.385Z,6.7
2019-03-17T02:40:40.339Z,6.7
2019-03-17T02:41:40.699Z,6.7
2019-03-17T02:42:40.638Z,6.7
2019-03-17T02:43:40.545Z,6.7
2019-03-17T02:44:40.448Z,6.7
2019-03-17T02:45:40.438Z,6.7
2019-03-17T02:46:40.369Z,6.7
2019-03-17T02:47:40.258Z,6.7
2019-03-17T02:48:40.186Z,6.7
2019-03-17T02:49:40.131Z,6.7
2019-03-17T02:50:40.040Z,6.7
2019-03-17T02:51:40.462Z,6.7
2019-03-17T02:52:40.532Z,6.6
2019-03-17T02:53:40.452Z,6.6
2019-03-17T02:54:40.400Z,6.6
2019-03-17T02:55:40.289Z,6.6
2019-03-17T02:56:40.285Z,6.6
2019-03-17T02:57:40.199Z,6.6
2019-03-17T02:58:40.129Z,6.6
2019-03-17T02:59:40.038Z,6.6
2019-03-17T03:00:39.961Z,6.6
2019-03-17T03:01:40.353Z,6.6
2019-03-17T03:02:40.301Z,6.6
2019-03-17T03:03:40.219Z,6.6
2019-03-17T03:04:40.116Z,6.5
2019-03-17T03:05:56.211Z,6.5
2019-03-17T03:06:56.118Z,6.5
2019-03-17T03:07:56.035Z,6.4
2019-03-17T03:08:55.959Z,6.4
2019-03-17T03:09:55.858Z,6.5
2019-03-17T03:10:55.796Z,6.5
2019-03-17T03:11:56.151Z,6.4
2019-03-17T03:12:56.110Z,6.4
2019-03-17T03:13:56.031Z,6.4
2019-03-17T03:14:55.964Z,6.5
2019-03-17T03:15:55.961Z,6.5
2019-03-17T03:16:55.868Z,6.5
2019-03-17T03:17:55.786Z,6.4
2019-03-17T03:18:55.731Z,6.5
2019-03-17T03:19:55.802Z,6.4
2019-03-17T03:20:55.710Z,6.4
2019-03-17T03:21:56.081Z,6.4
2019-03-17T03:22:55.997Z,6.4
2019-03-17T03:23:55.949Z,6.4
2019-03-17T03:24:55.853Z,6.4
2019-03-17T03:25:55.807Z,6.4
2019-03-17T03:26:55.740Z,6.3
2019-03-17T03:27:55.682Z,6.3
2019-03-17T03:28:55.676Z,6.2
2019-03-17T03:29:55.575Z,6.3
2019-03-17T03:30:55.500Z,6.3
2019-03-17T03:31:55.958Z,6.3
2019-03-17T03:32:56.105Z,6.3
2019-03-17T03:33:56.166Z,6.3
2019-03-17T03:34:56.177Z,6.3
2019-03-17T03:36:12.466Z,6.2
2019-03-17T03:37:12.409Z,6.2
2019-03-17T03:38:12.347Z,6.2
2019-03-17T03:39:12.293Z,6.2
2019-03-17T03:40:12.263Z,6.2
2019-03-17T03:41:12.185Z,6.2
2019-03-17T03:42:12.534Z,6.1
2019-03-17T03:43:12.445Z,6.1
2019-03-17T03:44:12.476Z,6.1
2019-03-17T03:45:12.465Z,6.2
2019-03-17T03:46:12.527Z,6.2
2019-03-17T03:48:12.179Z,6.4
2019-03-17T03:50:11.845Z,6.5
2019-03-17T03:52:11.953Z,6.5
2019-03-17T03:53:11.872Z,6.6
2019-03-17T03:54:11.784Z,6.5
2019-03-17T03:55:11.686Z,6.5
2019-03-17T03:56:11.619Z,6.4
2019-03-17T03:57:11.513Z,6.4
2019-03-17T03:58:11.411Z,6.3
2019-03-17T03:59:11.307Z,6.3
2019-03-17T04:00:11.389Z,6.2
2019-03-17T04:01:11.324Z,6.2
2019-03-17T04:02:11.731Z,6.1
2019-03-17T04:03:11.633Z,6.1
2019-03-17T04:04:11.537Z,6
2019-03-17T04:05:11.459Z,6.1
2019-03-17T04:06:27.588Z,6.2
2019-03-17T04:07:27.566Z,6.2
2019-03-17T04:08:27.522Z,6.3
2019-03-17T04:10:27.281Z,6.4
2019-03-17T04:11:27.265Z,6.5
2019-03-17T04:12:27.719Z,6.5
2019-03-17T04:13:27.725Z,6.6
2019-03-17T04:15:27.400Z,6.7
2019-03-17T04:16:27.331Z,6.7
2019-03-17T04:18:27.044Z,6.7
2019-03-17T04:19:26.952Z,6.6
2019-03-17T04:20:26.873Z,6.6
2019-03-17T04:21:26.843Z,6.7
2019-03-17T04:22:27.255Z,6.7
2019-03-17T04:23:27.204Z,6.7
2019-03-17T04:25:26.960Z,6.7
2019-03-17T04:26:26.950Z,6.7
2019-03-17T04:27:26.894Z,6.7
2019-03-17T04:28:26.817Z,6.7
2019-03-17T04:29:26.793Z,6.7
2019-03-17T04:31:26.459Z,6.7
2019-03-17T04:32:26.871Z,6.7
2019-03-17T04:33:26.782Z,6.7
2019-03-17T04:34:26.666Z,6.7
2019-03-17T04:35:26.578Z,6.7
2019-03-17T04:36:41.200Z,6.7
2019-03-17T04:38:44.576Z,6.7
2019-03-17T04:39:44.489Z,6.6
2019-03-17T04:40:44.379Z,6.6
2019-03-17T04:41:44.327Z,6.6
2019-03-17T04:42:44.704Z,6.6
2019-03-17T04:43:44.611Z,6.6
2019-03-17T04:44:44.505Z,6.6
2019-03-17T04:45:44.476Z,6.6
2019-03-17T04:46:44.368Z,6.5
2019-03-17T04:47:44.374Z,6.5
2019-03-17T04:48:44.531Z,6.5
2019-03-17T04:49:44.682Z,6.4
2019-03-17T04:50:44.597Z,6.3
2019-03-17T04:51:44.499Z,6.3
2019-03-17T04:52:44.832Z,6.3
2019-03-17T04:53:44.759Z,6.2
2019-03-17T04:54:44.716Z,6.1
2019-03-17T04:55:44.613Z,6.1
2019-03-17T04:56:44.504Z,6.1
2019-03-17T04:57:44.399Z,6
2019-03-17T04:58:44.287Z,6
2019-03-17T04:59:44.187Z,6
2019-03-17T05:00:44.070Z,5.9
2019-03-17T05:01:43.963Z,5.9
2019-03-17T05:02:44.317Z,5.9
2019-03-17T05:03:44.219Z,5.9
2019-03-17T05:04:44.140Z,5.9
2019-03-17T05:05:44.021Z,5.9
2019-03-17T05:06:53.688Z,5.9
2019-03-17T05:07:53.585Z,5.8
2019-03-17T05:08:53.479Z,5.8
2019-03-17T05:09:53.401Z,5.8
2019-03-17T05:10:53.311Z,5.8
2019-03-17T05:11:53.197Z,5.8
2019-03-17T05:12:53.535Z,5.7
2019-03-17T05:13:53.426Z,5.7
2019-03-17T05:14:53.319Z,5.6
2019-03-17T05:15:53.211Z,5.6
2019-03-17T05:16:53.128Z,5.6
2019-03-17T05:17:53.061Z,5.6
2019-03-17T05:18:52.952Z,5.6
2019-03-17T05:19:52.874Z,5.6
2019-03-17T05:20:52.776Z,5.6
2019-03-17T05:21:52.666Z,5.5
2019-03-17T05:22:53.134Z,5.5
2019-03-17T05:23:53.021Z,5.4
2019-03-17T05:24:52.985Z,5.3
2019-03-17T05:25:52.903Z,5.4
2019-03-17T05:27:52.559Z,5.5
2019-03-17T05:32:51.862Z,5.8
2019-03-17T05:33:51.763Z,5.8
2019-03-17T05:34:51.749Z,5.7
2019-03-17T05:35:51.693Z,5.6
2019-03-17T05:36:51.595Z,5.7
2019-03-17T05:38:06.833Z,5.6
2019-03-17T05:39:06.729Z,5.6
2019-03-17T05:40:06.661Z,5.6
2019-03-17T05:41:06.591Z,5.6
2019-03-17T05:42:06.543Z,5.6
2019-03-17T05:43:10.248Z,5.6
2019-03-17T05:44:10.144Z,5.5
2019-03-17T05:45:10.084Z,5.6
2019-03-17T05:46:10.003Z,5.5
2019-03-17T05:47:09.895Z,5.5
2019-03-17T05:48:09.783Z,5.5
2019-03-17T05:49:09.691Z,5.5
2019-03-17T05:50:09.569Z,5.5
2019-03-17T05:51:09.493Z,5.4
2019-03-17T05:52:09.432Z,5.4
2019-03-17T05:53:09.832Z,5.4
2019-03-17T05:54:09.718Z,5.3
2019-03-17T05:55:09.687Z,5.3
2019-03-17T05:56:09.623Z,5.3
2019-03-17T05:57:09.613Z,5.3
2019-03-17T05:58:09.515Z,5.3
2019-03-17T05:59:09.409Z,5.3
2019-03-17T06:00:09.311Z,5.3
2019-03-17T06:01:09.213Z,5.3
2019-03-17T06:02:09.099Z,5.3
2019-03-17T06:03:09.468Z,5.2
2019-03-17T06:04:09.377Z,5.2
2019-03-17T06:05:09.262Z,5.2
2019-03-17T06:06:09.128Z,5.3
2019-03-17T06:15:17.994Z,6.3
2019-03-17T06:17:17.626Z,6.4
2019-03-17T06:20:20.047Z,6.5
2019-03-17T06:23:19.917Z,6.6
2019-03-17T06:24:19.852Z,6.7
2019-03-17T06:25:19.748Z,6.7
2019-03-17T06:26:19.661Z,6.7
2019-03-17T06:27:19.545Z,6.7
2019-03-17T06:28:22.267Z,6.7
2019-03-17T06:29:22.269Z,6.6
2019-03-17T06:30:22.161Z,6.6
2019-03-17T06:31:22.049Z,6.6
2019-03-17T06:32:21.943Z,6.6
2019-03-17T06:33:22.274Z,6.5
2019-03-17T06:34:24.938Z,6.5
2019-03-17T06:35:24.826Z,6.5
2019-03-17T06:36:24.729Z,6.5
2019-03-17T06:37:31.897Z,6.5
2019-03-17T06:38:31.789Z,6.5
2019-03-17T06:39:31.709Z,6.4
2019-03-17T06:40:31.589Z,6.5
2019-03-17T06:41:31.489Z,6.5
2019-03-17T06:42:31.537Z,6.5
2019-03-17T06:43:31.857Z,6.5
2019-03-17T06:44:31.781Z,6.5
2019-03-17T06:45:31.681Z,6.5
2019-03-17T06:46:31.568Z,6.5
2019-03-17T06:47:31.457Z,6.5
2019-03-17T06:48:31.381Z,6.5
2019-03-17T06:49:31.274Z,6.5
2019-03-17T06:50:31.186Z,6.5
2019-03-17T06:51:31.093Z,6.5
2019-03-17T06:52:30.987Z,6.6
2019-03-17T06:53:31.277Z,6.6
2019-03-17T06:54:31.196Z,6.6
2019-03-17T06:55:31.117Z,6.7
2019-03-17T06:56:30.991Z,6.8
2019-03-17T06:57:30.925Z,7
2019-03-17T06:58:33.401Z,7.1
2019-03-17T06:59:33.317Z,7.3
2019-03-17T07:00:33.251Z,7.3
2019-03-17T07:01:33.149Z,7.5
2019-03-17T07:02:33.046Z,7.6
2019-03-17T07:03:33.377Z,7.6
2019-03-17T07:04:33.278Z,7.7
2019-03-17T07:05:33.175Z,7.8
2019-03-17T07:06:33.125Z,7.9
2019-03-17T07:07:45.331Z,8
2019-03-17T07:08:45.234Z,8
2019-03-17T07:09:45.113Z,8
2019-03-17T07:10:45.020Z,8.1
2019-03-17T07:11:44.938Z,8.1
2019-03-17T07:12:44.839Z,8.1
2019-03-17T07:13:45.165Z,8.2
2019-03-17T07:14:45.129Z,8.3
2019-03-17T07:15:45.042Z,8.3
2019-03-17T07:16:44.954Z,8.4
2019-03-17T07:17:44.844Z,8.6
2019-03-17T07:18:44.751Z,8.7
2019-03-17T07:19:44.645Z,8.9
2019-03-17T07:20:44.595Z,9
2019-03-17T07:21:44.549Z,9.2
2019-03-17T07:22:44.455Z,9.3
2019-03-17T07:23:44.786Z,9.4
2019-03-17T07:24:44.676Z,9.5
2019-03-17T07:25:44.567Z,9.7
2019-03-17T07:26:44.477Z,9.7
2019-03-17T07:27:44.405Z,9.7
2019-03-17T07:28:44.327Z,11.3
2019-03-17T07:29:44.222Z,10
2019-03-17T07:30:44.109Z,9.9
2019-03-17T07:31:44.019Z,10
2019-03-17T07:32:43.909Z,10
2019-03-17T07:33:44.266Z,10
2019-03-17T07:34:44.161Z,10.1
2019-03-17T07:35:46.966Z,10
2019-03-17T07:36:46.940Z,10
2019-03-17T07:37:57.733Z,10
2019-03-17T07:39:12.950Z,10.1
2019-03-17T07:40:12.857Z,10.1
2019-03-17T07:41:12.758Z,10.2
2019-03-17T07:42:12.679Z,10.3
2019-03-17T07:43:12.572Z,10.3
2019-03-17T07:44:12.934Z,10.2
2019-03-17T07:45:12.843Z,10.3
2019-03-17T07:46:12.734Z,10.4
2019-03-17T07:47:12.640Z,10.5
2019-03-17T07:48:12.574Z,10.6
2019-03-17T07:49:12.465Z,10.7
2019-03-17T07:50:12.375Z,10.8
2019-03-17T07:51:12.290Z,10.9
2019-03-17T07:52:12.212Z,11
2019-03-17T07:53:12.186Z,11
2019-03-17T07:54:12.640Z,11
2019-03-17T07:55:12.540Z,11.1
2019-03-17T07:56:12.473Z,11.3
2019-03-17T07:57:12.379Z,11.3
2019-03-17T07:58:12.340Z,11.5
2019-03-17T07:59:12.276Z,11.6
2019-03-17T08:00:12.238Z,11.7
2019-03-17T08:01:12.154Z,11.8
2019-03-17T08:02:12.136Z,11.9
2019-03-17T08:03:12.056Z,12
2019-03-17T08:04:12.445Z,12.2
2019-03-17T08:05:12.364Z,12.4
2019-03-17T08:06:12.269Z,12.4
2019-03-17T08:07:12.164Z,12.6
2019-03-17T08:08:12.167Z,12.6
2019-03-17T08:09:12.066Z,12.7
2019-03-17T08:10:11.975Z,12.8
2019-03-17T08:11:11.948Z,13
2019-03-17T08:12:11.850Z,13.2
2019-03-17T08:13:11.749Z,13.3
2019-03-17T08:14:12.127Z,13.4
2019-03-17T08:15:12.019Z,13.5
2019-03-17T08:16:11.943Z,13.6
2019-03-17T08:17:11.852Z,13.7
2019-03-17T08:18:11.826Z,13.8
2019-03-17T08:19:11.757Z,13.9
2019-03-17T08:20:11.687Z,14
2019-03-17T08:21:11.672Z,14.1
2019-03-17T08:22:11.575Z,14.2
2019-03-17T08:23:11.478Z,14.4
2019-03-17T08:24:11.876Z,14.3
2019-03-17T08:25:11.813Z,14.4
2019-03-17T08:26:11.726Z,14.5
2019-03-17T08:27:11.637Z,14.6
2019-03-17T08:28:11.522Z,14.7
2019-03-17T08:29:11.431Z,14.7
2019-03-17T08:30:11.337Z,14.8
2019-03-17T08:31:11.244Z,14.8
2019-03-17T08:32:11.150Z,14.9
2019-03-17T08:33:11.121Z,14.9
2019-03-17T08:34:11.447Z,14.9
2019-03-17T08:35:11.368Z,14.9
2019-03-17T08:36:11.292Z,14.9
2019-03-17T08:37:11.185Z,14.9
2019-03-17T08:38:22.818Z,15
2019-03-17T08:39:22.697Z,15.1
2019-03-17T08:40:22.681Z,15.1
2019-03-17T08:41:22.658Z,15.1
2019-03-17T08:42:22.607Z,15.1
2019-03-17T08:43:22.496Z,15.1
2019-03-17T08:44:24.581Z,15.1
2019-03-17T08:45:24.520Z,15.2
2019-03-17T08:46:24.415Z,15.2
2019-03-17T08:47:24.300Z,15.2
2019-03-17T08:48:24.202Z,15.3
2019-03-17T08:49:24.115Z,15.4
2019-03-17T08:50:24.023Z,15.5
2019-03-17T08:51:24.235Z,15.4
2019-03-17T08:52:24.416Z,15.4
2019-03-17T08:53:24.316Z,15.4
2019-03-17T08:54:24.664Z,15.4
2019-03-17T08:55:24.674Z,15.5
2019-03-17T08:56:24.584Z,15.5
2019-03-17T08:57:24.510Z,15.5
2019-03-17T08:58:24.428Z,15.6
2019-03-17T08:59:24.321Z,15.7
2019-03-17T09:00:24.237Z,15.8
2019-03-17T09:01:24.162Z,15.8
2019-03-17T09:02:24.054Z,16
2019-03-17T09:03:23.950Z,16.1
2019-03-17T09:04:24.297Z,16.2
2019-03-17T09:05:24.213Z,16.3
2019-03-17T09:06:24.110Z,16.4
2019-03-17T09:07:24.047Z,16.4
2019-03-17T09:08:36.025Z,16.4
2019-03-17T09:09:35.934Z,16.4
2019-03-17T09:10:35.835Z,16.4
2019-03-17T09:11:35.859Z,16.4
2019-03-17T09:12:35.783Z,16.4
2019-03-17T09:13:35.679Z,16.3
2019-03-17T09:14:36.033Z,16.3
2019-03-17T09:15:35.928Z,16.3
2019-03-17T09:16:35.913Z,16.4
2019-03-17T09:17:35.843Z,16.5
2019-03-17T09:18:35.739Z,16.6
2019-03-17T09:19:39.551Z,16.7
2019-03-17T09:20:41.207Z,16.8
2019-03-17T09:21:41.115Z,16.8
2019-03-17T09:22:41.133Z,16.9
2019-03-17T09:23:43.410Z,16.9
2019-03-17T09:24:47.659Z,16.8
2019-03-17T09:25:50.595Z,16.9
2019-03-17T09:26:50.517Z,16.9
2019-03-17T09:27:50.443Z,17
2019-03-17T09:28:50.423Z,17
2019-03-17T09:29:50.360Z,17.1
2019-03-17T09:30:50.276Z,17.1
2019-03-17T09:31:55.578Z,17.2
2019-03-17T09:33:02.668Z,17.3
2019-03-17T09:34:02.546Z,17.3
2019-03-17T09:35:02.917Z,17.3
2019-03-17T09:36:02.830Z,17.3
2019-03-17T09:37:02.748Z,17.1
2019-03-17T09:38:02.687Z,17.1
2019-03-17T09:39:02.594Z,17.1
2019-03-17T09:40:02.504Z,17.2
2019-03-17T09:41:02.412Z,17.2
2019-03-17T09:42:02.327Z,17.2
2019-03-17T09:43:02.264Z,17.3
2019-03-17T09:44:02.401Z,17.4
2019-03-17T09:45:02.734Z,17.5
2019-03-17T09:46:02.664Z,17.6
2019-03-17T09:47:03.174Z,17.7
2019-03-17T09:48:03.815Z,17.7
2019-03-17T09:49:03.755Z,17.7
2019-03-17T09:50:03.677Z,17.8
2019-03-17T09:51:03.580Z,17.8
2019-03-17T09:52:03.508Z,17.9
2019-03-17T09:53:03.452Z,18
2019-03-17T09:54:03.374Z,18
2019-03-17T09:55:04.084Z,18.1
2019-03-17T09:56:03.986Z,18.2
2019-03-17T09:57:04.130Z,18.2
2019-03-17T09:58:04.022Z,18.2
2019-03-17T09:59:03.946Z,18.2
2019-03-17T10:00:03.859Z,18.3
2019-03-17T10:01:03.764Z,18.3
2019-03-17T10:02:03.710Z,18.3
2019-03-17T10:03:03.607Z,18.4
2019-03-17T10:04:03.504Z,18.4
2019-03-17T10:05:03.872Z,18.5
2019-03-17T10:06:03.768Z,18.4
2019-03-17T10:07:03.660Z,18.4
2019-03-17T10:08:03.586Z,18.4
2019-03-17T10:09:03.489Z,18.5
2019-03-17T10:10:03.416Z,18.5
2019-03-17T10:11:03.362Z,18.5
2019-03-17T10:12:03.286Z,18.5
2019-03-17T10:13:03.222Z,18.5
2019-03-17T10:14:03.120Z,18.6
2019-03-17T10:15:03.586Z,18.4
2019-03-17T10:16:03.507Z,18.4
2019-03-17T10:17:03.443Z,18.5
2019-03-17T10:18:03.344Z,18.5
2019-03-17T10:19:03.265Z,18.6
2019-03-17T10:20:03.168Z,18.5
2019-03-17T10:21:03.087Z,18.5
2019-03-17T10:22:03.012Z,18.5
2019-03-17T10:23:02.989Z,18.5
2019-03-17T10:24:02.895Z,18.5
2019-03-17T10:25:03.378Z,18.5
2019-03-17T10:26:03.292Z,18.6
2019-03-17T10:27:03.177Z,18.7
2019-03-17T10:28:03.082Z,18.7
2019-03-17T10:29:02.976Z,18.7
2019-03-17T10:30:02.918Z,18.7
2019-03-17T10:31:02.818Z,18.8
2019-03-17T10:32:02.722Z,18.7
2019-03-17T10:33:02.619Z,18.7
2019-03-17T10:34:02.531Z,18.6
2019-03-17T10:35:02.914Z,18.6
2019-03-17T10:36:02.832Z,18.6
2019-03-17T10:37:02.744Z,18.5
2019-03-17T10:38:02.644Z,18.5
2019-03-17T10:39:13.325Z,18.5
2019-03-17T10:40:13.242Z,18.5
2019-03-17T10:41:13.291Z,18.5
2019-03-17T10:42:13.184Z,18.6
2019-03-17T10:43:13.104Z,18.5
2019-03-17T10:44:13.009Z,18.6
2019-03-17T10:45:13.373Z,18.6
2019-03-17T10:46:13.292Z,18.6
2019-03-17T10:47:13.214Z,18.6
2019-03-17T10:48:13.155Z,18.7
2019-03-17T10:49:13.049Z,18.6
2019-03-17T10:50:13.010Z,18.6
2019-03-17T10:51:12.911Z,18.7
2019-03-17T10:52:12.808Z,18.8
2019-03-17T10:53:12.707Z,18.8
2019-03-17T10:54:15.543Z,18.9
2019-03-17T10:55:15.928Z,18.8
2019-03-17T10:56:15.829Z,18.9
2019-03-17T10:57:15.758Z,18.9
2019-03-17T10:58:15.643Z,18.9
2019-03-17T10:59:15.566Z,18.8
2019-03-17T11:00:15.511Z,18.8
2019-03-17T11:01:15.453Z,18.7
2019-03-17T11:02:15.380Z,18.7
2019-03-17T11:03:15.277Z,18.7
2019-03-17T11:04:15.187Z,18.6
2019-03-17T11:05:15.516Z,18.5
2019-03-17T11:06:15.476Z,18.5
2019-03-17T11:07:15.370Z,18.5
2019-03-17T11:08:15.288Z,18.6
2019-03-17T11:09:26.210Z,18.5
2019-03-17T11:10:26.160Z,18.5
2019-03-17T11:11:26.059Z,18.5
2019-03-17T11:12:26.008Z,18.5
2019-03-17T11:13:25.937Z,18.4
2019-03-17T11:14:25.847Z,18.4
2019-03-17T11:15:26.184Z,18.4
2019-03-17T11:16:26.149Z,18.4
2019-03-17T11:17:26.120Z,18.3
2019-03-17T11:18:25.998Z,18.2
2019-03-17T11:19:26.448Z,18.3
2019-03-17T11:20:26.520Z,18.2
2019-03-17T11:21:26.447Z,18.2
2019-03-17T11:22:26.413Z,18.3
2019-03-17T11:23:26.317Z,18.2
2019-03-17T11:24:26.224Z,18.3
2019-03-17T11:25:26.579Z,18.2
2019-03-17T11:26:26.477Z,18.2
2019-03-17T11:27:26.371Z,18.1
2019-03-17T11:28:26.369Z,18.1
2019-03-17T11:29:26.272Z,18.1
2019-03-17T11:30:29.327Z,18.1
2019-03-17T11:31:29.247Z,18.1
2019-03-17T11:32:29.172Z,18.1
2019-03-17T11:33:29.087Z,18.1
2019-03-17T11:34:28.983Z,18
2019-03-17T11:35:29.342Z,18
2019-03-17T11:36:29.252Z,18
2019-03-17T11:37:29.373Z,18
2019-03-17T11:38:29.322Z,18.1
2019-03-17T11:39:38.723Z,18.1
2019-03-17T11:40:38.657Z,18
2019-03-17T11:41:38.626Z,18.1
2019-03-17T11:42:38.559Z,18
2019-03-17T11:43:38.466Z,18.1
2019-03-17T11:44:38.427Z,18.1
2019-03-17T11:45:38.803Z,18.1
2019-03-17T11:46:38.779Z,18.1
2019-03-17T11:47:38.701Z,18.1
2019-03-17T11:48:38.626Z,18.1
2019-03-17T11:49:38.540Z,18.1
2019-03-17T11:50:38.455Z,18.1
2019-03-17T11:51:38.379Z,18.1
2019-03-17T11:52:38.291Z,18.1
2019-03-17T11:53:38.201Z,18.1
2019-03-17T11:54:38.113Z,18
2019-03-17T11:55:38.435Z,18
2019-03-17T11:56:38.337Z,17.9
2019-03-17T11:57:38.227Z,17.9
2019-03-17T11:58:38.475Z,17.8
2019-03-17T11:59:38.395Z,17.9
2019-03-17T12:00:38.291Z,17.9
2019-03-17T12:01:38.208Z,17.9
2019-03-17T12:02:38.112Z,17.8
2019-03-17T12:03:38.108Z,17.8
2019-03-17T12:04:38.009Z,17.8
2019-03-17T12:05:38.376Z,17.8
2019-03-17T12:06:38.286Z,17.8
2019-03-17T12:07:38.183Z,17.8
2019-03-17T12:08:38.143Z,17.8
2019-03-17T12:09:51.017Z,17.8
2019-03-17T12:10:50.940Z,17.8
2019-03-17T12:11:50.847Z,17.8
2019-03-17T12:12:50.796Z,17.7
2019-03-17T12:13:50.745Z,17.7
2019-03-17T12:14:50.649Z,17.7
2019-03-17T12:15:51.065Z,17.7
2019-03-17T12:16:51.047Z,17.7
2019-03-17T12:17:50.973Z,17.6
2019-03-17T12:18:50.866Z,17.7
2019-03-17T12:19:50.781Z,17.6
2019-03-17T12:20:50.691Z,17.7
2019-03-17T12:21:50.603Z,17.6
2019-03-17T12:22:50.602Z,17.7
2019-03-17T12:23:50.569Z,17.6
2019-03-17T12:24:50.487Z,17.6
2019-03-17T12:25:50.862Z,17.5
2019-03-17T12:26:50.836Z,17.5
2019-03-17T12:27:50.762Z,17.5
2019-03-17T12:28:50.679Z,17.6
2019-03-17T12:29:50.601Z,17.6
2019-03-17T12:30:50.517Z,17.6
2019-03-17T12:31:50.423Z,17.7
2019-03-17T12:32:50.336Z,17.7
2019-03-17T12:33:50.247Z,17.8
2019-03-17T12:34:50.188Z,17.8
2019-03-17T12:35:50.575Z,17.8
2019-03-17T12:36:50.521Z,17.8
2019-03-17T12:37:50.417Z,17.8
2019-03-17T12:38:50.311Z,17.8
2019-03-17T12:40:03.727Z,17.8
2019-03-17T12:41:03.625Z,17.7
2019-03-17T12:42:03.547Z,17.7
2019-03-17T12:43:03.451Z,17.7
2019-03-17T12:44:03.352Z,17.6
2019-03-17T12:45:03.289Z,17.6
2019-03-17T12:46:03.658Z,17.5
2019-03-17T12:47:03.573Z,17.6
2019-03-17T12:48:03.494Z,17.6
2019-03-17T12:49:03.431Z,17.5
2019-03-17T12:50:03.337Z,17.5
2019-03-17T12:51:03.255Z,17.5
2019-03-17T12:52:03.180Z,17.5
2019-03-17T12:53:03.118Z,17.4
2019-03-17T12:54:03.077Z,17.4
2019-03-17T12:55:02.981Z,17.4
2019-03-17T12:56:03.349Z,17.4
2019-03-17T12:57:03.253Z,17.3
2019-03-17T12:58:03.145Z,17.3
2019-03-17T12:59:03.071Z,17.4
2019-03-17T13:00:03.014Z,17.4
2019-03-17T13:01:02.943Z,17.4
2019-03-17T13:02:02.858Z,17.4
2019-03-17T13:03:02.764Z,17.4
2019-03-17T13:04:02.977Z,17.4
2019-03-17T13:05:02.940Z,17.5
2019-03-17T13:06:03.523Z,19.7
2019-03-17T13:07:03.555Z,17.5
2019-03-17T13:08:03.739Z,17.6
2019-03-17T13:09:03.878Z,17.6
2019-03-17T13:10:16.944Z,17.6
2019-03-17T13:11:16.881Z,17.6
2019-03-17T13:12:16.777Z,17.5
2019-03-17T13:13:16.677Z,17.4
2019-03-17T13:14:16.821Z,17.3
2019-03-17T13:15:16.736Z,17.3
2019-03-17T13:16:17.127Z,17.3
2019-03-17T13:17:17.089Z,17.2
2019-03-17T13:18:17.009Z,17.2
2019-03-17T13:19:16.907Z,17.2
2019-03-17T13:20:16.805Z,17.2
2019-03-17T13:21:16.707Z,17.2
2019-03-17T13:22:16.644Z,17.1
2019-03-17T13:23:16.549Z,17.2
2019-03-17T13:24:16.441Z,17.2
2019-03-17T13:25:16.355Z,17.3
2019-03-17T13:26:17.717Z,17.3
2019-03-17T13:27:17.649Z,17.2
2019-03-17T13:28:17.553Z,17.2
2019-03-17T13:29:17.447Z,17.3
2019-03-17T13:30:17.336Z,17.2
2019-03-17T13:31:17.253Z,17.2
2019-03-17T13:32:20.193Z,17.2
2019-03-17T13:33:20.116Z,17.3
2019-03-17T13:34:20.079Z,17.3
2019-03-17T13:35:19.973Z,17.2
2019-03-17T13:36:20.335Z,17.1
2019-03-17T13:37:20.249Z,17.1
2019-03-17T13:38:20.153Z,17.1
2019-03-17T13:39:20.065Z,17
2019-03-17T13:40:30.596Z,17.1
2019-03-17T13:41:30.517Z,17
2019-03-17T13:42:30.420Z,17
2019-03-17T13:43:30.356Z,17
2019-03-17T13:44:30.256Z,17
2019-03-17T13:45:30.179Z,17
2019-03-17T13:46:30.668Z,17
2019-03-17T13:47:30.614Z,16.9
2019-03-17T13:48:30.550Z,16.9
2019-03-17T13:49:30.472Z,16.8
2019-03-17T13:50:36.296Z,16.8
2019-03-17T13:51:36.204Z,16.8
2019-03-17T13:52:37.117Z,16.9
2019-03-17T13:53:37.339Z,16.8
2019-03-17T13:54:37.274Z,16.8
2019-03-17T13:55:37.231Z,16.8
2019-03-17T13:56:37.616Z,16.8
2019-03-17T13:57:37.545Z,16.8
2019-03-17T13:58:37.502Z,16.7
2019-03-17T13:59:37.415Z,16.7
2019-03-17T14:00:37.315Z,16.7
2019-03-17T14:01:37.234Z,16.7
2019-03-17T14:02:37.139Z,16.7
2019-03-17T14:03:37.052Z,16.7
2019-03-17T14:04:36.987Z,16.7
2019-03-17T14:05:36.879Z,16.6
2019-03-17T14:06:37.271Z,16.6
2019-03-17T14:07:37.397Z,16.6
2019-03-17T14:08:37.300Z,16.6
2019-03-17T14:09:37.215Z,16.5
2019-03-17T14:10:42.197Z,16.5